createdAt,value
2023-09-27T00:02:20.765Z,19.16
2023-09-27T00:04:48.964Z,19.14
2023-09-27T00:07:16.795Z,19.04
2023-09-27T00:09:44.468Z,19.02
2023-09-27T00:12:14.364Z,19.07
2023-09-27T00:14:42.458Z,19.11
2023-09-27T00:17:11.969Z,19.02
2023-09-27T00:19:40.272Z,19.03
2023-09-27T00:22:07.972Z,18.95
2023-09-27T00:24:35.652Z,19.03
2023-09-27T00:27:03.691Z,18.98
2023-09-27T00:29:31.329Z,19.01
2023-09-27T00:31:59.176Z,19.03
2023-09-27T00:34:27.101Z,18.90
2023-09-27T00:36:54.811Z,18.90
2023-09-27T00:39:23.122Z,19.02
2023-09-27T00:41:51.168Z,19.01
2023-09-27T00:44:18.948Z,18.85
2023-09-27T00:46:46.745Z,18.91
2023-09-27T00:49:15.737Z,18.87
2023-09-27T00:51:43.941Z,18.83
2023-09-27T00:54:11.912Z,18.87
2023-09-27T00:56:40.902Z,18.78
2023-09-27T00:59:08.886Z,18.82
2023-09-27T01:01:37.175Z,18.77
2023-09-27T01:04:05.205Z,18.83
2023-09-27T01:06:33.643Z,18.87
2023-09-27T01:09:04.708Z,18.84
2023-09-27T01:11:33.751Z,18.81
2023-09-27T01:14:01.861Z,18.80
2023-09-27T01:16:29.699Z,18.65
2023-09-27T01:19:04.205Z,18.73
2023-09-27T01:21:32.157Z,18.65
2023-09-27T01:24:00.168Z,18.65
2023-09-27T01:26:29.973Z,18.59
2023-09-27T01:28:57.688Z,18.91
2023-09-27T01:31:28.507Z,18.99
2023-09-27T01:33:56.174Z,18.83
2023-09-27T01:36:23.774Z,18.81
2023-09-27T01:38:52.075Z,18.88
2023-09-27T01:41:19.852Z,18.78
2023-09-27T01:43:47.520Z,18.56
2023-09-27T01:46:15.476Z,18.42
2023-09-27T01:48:43.128Z,18.48
2023-09-27T01:51:10.785Z,18.40
2023-09-27T01:53:38.852Z,18.54
2023-09-27T01:56:06.527Z,18.47
2023-09-27T01:58:34.261Z,18.36
2023-09-27T02:01:02.244Z,18.28
2023-09-27T02:03:30.196Z,18.28
2023-09-27T02:05:58.915Z,18.20
2023-09-27T02:08:26.664Z,18.21
2023-09-27T02:10:54.665Z,18.19
2023-09-27T02:13:22.364Z,18.16
2023-09-27T02:15:50.178Z,18.17
2023-09-27T02:18:18.148Z,18.08
2023-09-27T02:20:46.067Z,18.10
2023-09-27T02:23:13.880Z,18.00
2023-09-27T02:25:41.699Z,18.02
2023-09-27T02:28:09.542Z,17.99
2023-09-27T02:30:37.138Z,17.99
2023-09-27T02:33:04.867Z,17.93
2023-09-27T02:35:32.896Z,17.91
2023-09-27T02:38:00.580Z,17.94
2023-09-27T02:40:28.285Z,17.90
2023-09-27T02:42:56.260Z,18.02
2023-09-27T02:45:23.835Z,17.90
2023-09-27T02:47:51.541Z,17.92
2023-09-27T02:50:19.558Z,17.94
2023-09-27T02:52:47.197Z,17.83
2023-09-27T02:55:14.946Z,17.86
2023-09-27T02:57:42.923Z,17.86
2023-09-27T03:00:11.083Z,17.76
2023-09-27T03:02:39.120Z,17.81
2023-09-27T03:05:07.540Z,17.69
2023-09-27T03:07:35.360Z,17.68
2023-09-27T03:10:06.495Z,17.81
2023-09-27T03:12:34.612Z,17.63
2023-09-27T03:15:02.189Z,17.68
2023-09-27T03:17:30.242Z,17.63
2023-09-27T03:19:58.429Z,17.58
2023-09-27T03:22:26.270Z,17.61
2023-09-27T03:24:53.934Z,17.59
2023-09-27T03:27:21.807Z,17.55
2023-09-27T03:29:49.721Z,17.56
2023-09-27T03:32:17.412Z,17.65
2023-09-27T03:34:45.417Z,17.53
2023-09-27T03:37:13.117Z,17.50
2023-09-27T03:39:40.971Z,17.55
2023-09-27T03:42:09.112Z,17.48
2023-09-27T03:44:36.942Z,17.48
2023-09-27T03:47:04.751Z,17.40
2023-09-27T03:49:32.824Z,17.39
2023-09-27T03:52:00.562Z,17.34
2023-09-27T03:54:28.555Z,17.45
2023-09-27T03:56:56.549Z,17.34
2023-09-27T03:59:24.447Z,17.38
2023-09-27T04:01:52.248Z,17.34
2023-09-27T04:04:20.277Z,17.36
2023-09-27T04:06:48.749Z,17.29
2023-09-27T04:09:16.422Z,17.34
2023-09-27T04:11:44.370Z,17.32
2023-09-27T04:14:11.958Z,17.38
2023-09-27T04:16:39.838Z,17.32
2023-09-27T04:19:09.423Z,17.33
2023-09-27T04:21:37.147Z,17.35
2023-09-27T04:24:05.260Z,17.32
2023-09-27T04:26:36.171Z,17.41
2023-09-27T04:29:04.592Z,17.31
2023-09-27T04:31:33.445Z,17.26
2023-09-27T04:34:01.573Z,17.30
2023-09-27T04:36:29.312Z,17.26
2023-09-27T04:38:57.280Z,17.09
2023-09-27T04:41:25.217Z,17.26
2023-09-27T04:43:53.511Z,17.26
2023-09-27T04:46:21.531Z,17.18
2023-09-27T04:48:49.234Z,17.21
2023-09-27T04:51:16.938Z,17.13
2023-09-27T04:53:44.816Z,17.24
2023-09-27T04:56:12.912Z,17.24
2023-09-27T04:58:41.218Z,17.31
2023-09-27T05:01:09.673Z,17.27
2023-09-27T05:03:38.237Z,17.30
2023-09-27T05:06:06.041Z,17.28
2023-09-27T05:08:34.121Z,17.32
2023-09-27T05:11:02.430Z,17.33
2023-09-27T05:13:30.119Z,17.36
2023-09-27T05:15:58.073Z,17.38
2023-09-27T05:18:25.957Z,17.40
2023-09-27T05:20:53.622Z,17.43
2023-09-27T05:23:21.615Z,17.36
2023-09-27T05:25:49.278Z,17.43
2023-09-27T05:28:16.954Z,17.36
2023-09-27T05:30:44.956Z,17.44
2023-09-27T05:33:12.719Z,17.48
2023-09-27T05:35:40.637Z,17.59
2023-09-27T05:38:08.633Z,17.63
2023-09-27T05:40:36.376Z,17.65
2023-09-27T05:43:04.245Z,17.63
2023-09-27T05:45:32.195Z,17.62
2023-09-27T05:47:59.827Z,17.71
2023-09-27T05:50:27.635Z,17.76
2023-09-27T05:52:55.646Z,17.85
2023-09-27T05:55:23.252Z,17.88
2023-09-27T05:57:50.959Z,17.99
2023-09-27T06:00:18.935Z,17.97
2023-09-27T06:02:46.921Z,17.99
2023-09-27T06:05:15.069Z,18.02
2023-09-27T06:07:42.659Z,18.09
2023-09-27T06:10:10.687Z,18.12
2023-09-27T06:12:38.432Z,18.15
2023-09-27T06:15:06.504Z,18.17
2023-09-27T06:17:34.481Z,18.30
2023-09-27T06:20:06.460Z,18.31
2023-09-27T06:22:34.410Z,18.42
2023-09-27T06:25:02.128Z,18.50
2023-09-27T06:27:29.812Z,18.53
2023-09-27T06:29:57.719Z,18.60
2023-09-27T06:32:25.503Z,18.56
2023-09-27T06:34:53.601Z,18.65
2023-09-27T06:37:21.619Z,18.64
2023-09-27T06:39:49.244Z,18.75
2023-09-27T06:42:17.075Z,18.88
2023-09-27T06:44:45.011Z,18.97
2023-09-27T06:47:12.769Z,18.93
2023-09-27T06:49:40.729Z,18.86
2023-09-27T06:52:08.711Z,18.81
2023-09-27T06:54:36.391Z,18.93
2023-09-27T06:57:04.096Z,18.86
2023-09-27T06:59:32.013Z,19.01
2023-09-27T07:01:59.751Z,19.12
2023-09-27T07:04:28.574Z,19.17
2023-09-27T07:06:56.655Z,19.29
2023-09-27T07:09:24.284Z,19.26
2023-09-27T07:11:51.913Z,19.31
2023-09-27T07:14:19.847Z,19.37
2023-09-27T07:17:01.039Z,19.47
2023-09-27T07:19:30.460Z,19.53
2023-09-27T07:21:58.709Z,19.61
2023-09-27T07:24:29.271Z,19.73
2023-09-27T07:26:59.874Z,19.84
2023-09-27T07:29:27.606Z,19.96
2023-09-27T07:31:55.366Z,20.18
2023-09-27T07:34:23.213Z,20.18
2023-09-27T07:36:50.792Z,20.23
2023-09-27T07:39:18.615Z,20.38
2023-09-27T07:41:46.562Z,20.46
2023-09-27T07:44:14.287Z,20.50
2023-09-27T07:46:42.679Z,20.65
2023-09-27T07:49:10.640Z,20.70
2023-09-27T07:51:38.323Z,20.73
2023-09-27T07:54:06.040Z,20.90
2023-09-27T07:56:34.049Z,20.96
2023-09-27T07:59:01.699Z,21.10
2023-09-27T08:01:29.519Z,21.19
2023-09-27T08:03:57.590Z,21.21
2023-09-27T08:06:25.189Z,21.30
2023-09-27T08:08:53.111Z,21.48
2023-09-27T08:11:21.391Z,21.56
2023-09-27T08:13:49.024Z,21.76
2023-09-27T08:16:17.250Z,21.83
2023-09-27T08:18:45.212Z,22.01
2023-09-27T08:21:12.891Z,22.08
2023-09-27T08:23:40.785Z,22.20
2023-09-27T08:26:11.492Z,22.27
2023-09-27T08:28:39.381Z,22.30
2023-09-27T08:31:07.285Z,22.40
2023-09-27T08:33:35.260Z,22.46
2023-09-27T08:36:02.980Z,22.64
2023-09-27T08:38:30.604Z,22.76
2023-09-27T08:40:58.625Z,22.89
2023-09-27T08:43:27.866Z,23.04
2023-09-27T08:45:57.107Z,23.11
2023-09-27T08:48:25.987Z,23.13
2023-09-27T08:50:53.677Z,23.32
2023-09-27T08:53:21.396Z,23.43
2023-09-27T08:55:52.753Z,23.48
2023-09-27T08:58:24.756Z,23.75
2023-09-27T09:00:53.024Z,23.86
2023-09-27T09:03:20.998Z,23.82
2023-09-27T09:05:49.714Z,23.99
2023-09-27T09:08:26.360Z,24.05
2023-09-27T09:11:01.437Z,24.14
2023-09-27T09:13:29.406Z,24.13
2023-09-27T09:15:57.025Z,24.33
2023-09-27T09:18:28.985Z,24.29
2023-09-27T09:20:58.611Z,24.37
2023-09-27T09:23:30.017Z,24.53
2023-09-27T09:25:58.543Z,24.67
2023-09-27T09:28:26.368Z,24.83
2023-09-27T09:30:54.001Z,25.00
2023-09-27T09:33:22.948Z,25.04
2023-09-27T09:35:52.300Z,25.00
2023-09-27T09:38:27.913Z,25.21
2023-09-27T09:41:00.609Z,25.47
2023-09-27T09:43:38.825Z,25.67
2023-09-27T09:46:08.017Z,25.57
2023-09-27T09:48:36.695Z,25.90
2023-09-27T09:51:05.897Z,25.96
2023-09-27T09:53:39.440Z,26.07
2023-09-27T09:58:43.636Z,26.01
2023-09-27T10:01:14.524Z,26.38
2023-09-27T10:03:43.194Z,26.57
2023-09-27T10:06:10.983Z,26.76
2023-09-27T10:08:39.257Z,26.77
2023-09-27T10:11:07.381Z,26.81
2023-09-27T10:13:36.619Z,27.05
2023-09-27T10:16:04.337Z,27.08
2023-09-27T10:18:36.581Z,27.25
2023-09-27T10:21:04.212Z,27.24
2023-09-27T10:23:47.314Z,27.22
2023-09-27T10:26:17.867Z,27.80
2023-09-27T10:29:09.399Z,27.81
2023-09-27T10:31:55.463Z,27.92
2023-09-27T10:34:26.676Z,27.93
2023-09-27T10:37:04.066Z,27.98
2023-09-27T10:39:33.046Z,27.76
2023-09-27T10:42:00.739Z,27.99
2023-09-27T10:44:32.891Z,27.83
2023-09-27T10:47:05.612Z,28.21
2023-09-27T10:49:36.057Z,27.76
2023-09-27T10:52:07.319Z,28.36
2023-09-27T10:54:35.109Z,28.47
2023-09-27T10:57:03.547Z,28.53
2023-09-27T10:59:31.720Z,28.08
2023-09-27T11:02:04.313Z,28.65
2023-09-27T11:04:32.304Z,28.88
2023-09-27T11:07:00.175Z,29.11
2023-09-27T11:09:31.556Z,28.70
2023-09-27T11:12:00.164Z,28.67
2023-09-27T11:14:32.768Z,29.01
2023-09-27T11:17:23.232Z,29.10
2023-09-27T11:19:51.399Z,29.19
2023-09-27T11:22:25.998Z,29.32
2023-09-27T11:24:53.770Z,29.08
2023-09-27T11:27:22.134Z,29.04
2023-09-27T11:29:53.836Z,29.11
2023-09-27T11:32:22.468Z,29.23
2023-09-27T11:34:57.547Z,29.01
2023-09-27T11:37:26.428Z,28.47
2023-09-27T11:39:54.803Z,28.70
2023-09-27T11:42:23.074Z,29.54
2023-09-27T11:45:10.784Z,28.87
2023-09-27T11:47:51.670Z,28.99
2023-09-27T11:50:20.613Z,29.11
2023-09-27T11:52:48.810Z,29.04
2023-09-27T11:55:17.357Z,29.57
2023-09-27T11:57:45.299Z,29.85
2023-09-27T12:00:13.535Z,29.78
2023-09-27T12:02:52.068Z,29.83
2023-09-27T12:05:24.990Z,29.71
2023-09-27T12:07:53.724Z,29.16
2023-09-27T12:10:21.610Z,29.52
2023-09-27T12:12:49.314Z,29.99
2023-09-27T12:15:17.463Z,29.94
2023-09-27T12:17:45.222Z,29.78
2023-09-27T12:20:26.636Z,29.91
2023-09-27T12:23:00.985Z,29.02
2023-09-27T12:25:28.658Z,29.99
2023-09-27T12:27:56.319Z,30.22
2023-09-27T12:30:24.268Z,29.81
2023-09-27T12:32:51.993Z,29.51
2023-09-27T12:35:19.688Z,29.57
2023-09-27T12:37:49.722Z,29.79
2023-09-27T12:40:17.481Z,29.82
2023-09-27T12:42:45.114Z,29.71
2023-09-27T12:45:14.032Z,30.01
2023-09-27T12:47:42.044Z,30.08
2023-09-27T12:50:09.940Z,29.72
2023-09-27T12:52:38.071Z,29.92
2023-09-27T12:55:05.820Z,29.02
2023-09-27T12:57:33.676Z,29.84
2023-09-27T13:00:01.881Z,29.41
2023-09-27T13:02:30.196Z,29.91
2023-09-27T13:04:59.844Z,29.63
2023-09-27T13:07:27.701Z,29.61
2023-09-27T13:09:55.328Z,29.62
2023-09-27T13:12:23.219Z,29.54
2023-09-27T13:14:51.844Z,29.39
2023-09-27T13:17:19.716Z,29.82
2023-09-27T13:19:47.438Z,29.81
2023-09-27T13:22:15.605Z,29.57
2023-09-27T13:24:43.198Z,29.72
2023-09-27T13:27:10.878Z,29.46
2023-09-27T13:29:39.443Z,29.48
2023-09-27T13:32:09.868Z,29.60
2023-09-27T13:34:37.536Z,28.84
2023-09-27T13:37:05.598Z,29.37
2023-09-27T13:39:33.416Z,29.26
2023-09-27T13:42:03.632Z,28.62
2023-09-27T13:44:31.708Z,28.83
2023-09-27T13:47:00.394Z,29.14
2023-09-27T13:49:28.036Z,29.16
2023-09-27T13:51:56.237Z,28.97
2023-09-27T13:54:24.020Z,29.06
2023-09-27T13:56:51.802Z,28.95
2023-09-27T13:59:22.764Z,28.81
2023-09-27T14:01:50.684Z,28.51
2023-09-27T14:04:18.759Z,28.78
2023-09-27T14:06:46.877Z,28.59
2023-09-27T14:09:14.668Z,28.84
2023-09-27T14:11:42.621Z,28.59
2023-09-27T14:14:10.427Z,28.79
2023-09-27T14:16:38.406Z,28.66
2023-09-27T14:19:06.483Z,28.90
2023-09-27T14:21:34.255Z,28.52
2023-09-27T14:24:02.178Z,28.47
2023-09-27T14:26:30.332Z,28.46
2023-09-27T14:29:04.394Z,28.21
2023-09-27T14:31:32.456Z,28.47
2023-09-27T14:34:02.241Z,28.26
2023-09-27T14:36:30.756Z,28.25
2023-09-27T14:38:58.762Z,28.23
2023-09-27T14:41:28.696Z,28.41
2023-09-27T14:43:59.626Z,28.11
2023-09-27T14:46:30.681Z,28.04
2023-09-27T14:48:58.344Z,27.64
2023-09-27T14:51:26.077Z,27.83
2023-09-27T14:54:00.115Z,27.82
2023-09-27T14:56:33.696Z,27.74
2023-09-27T14:59:02.520Z,27.73
2023-09-27T15:01:30.658Z,27.88
2023-09-27T15:04:09.033Z,27.60
2023-09-27T15:06:39.752Z,27.44
2023-09-27T15:09:07.416Z,27.46
2023-09-27T15:11:36.887Z,27.36
2023-09-27T15:14:04.870Z,27.17
2023-09-27T15:16:32.752Z,26.80
2023-09-27T15:19:00.557Z,26.90
2023-09-27T15:21:28.570Z,27.14
2023-09-27T15:23:56.215Z,26.61
2023-09-27T15:26:24.130Z,26.81
2023-09-27T15:28:52.161Z,26.93
2023-09-27T15:31:20.055Z,26.75
2023-09-27T15:33:47.802Z,26.92
2023-09-27T15:36:15.915Z,26.99
2023-09-27T15:38:43.514Z,26.93
2023-09-27T15:41:20.584Z,26.88
2023-09-27T15:43:48.592Z,27.02
2023-09-27T15:46:16.983Z,27.13
2023-09-27T15:48:44.831Z,27.30
2023-09-27T15:51:14.192Z,27.32
2023-09-27T15:53:42.249Z,27.20
2023-09-27T15:56:10.020Z,26.61
2023-09-27T15:58:38.680Z,26.18
2023-09-27T16:01:07.380Z,26.10
2023-09-27T16:03:44.010Z,25.98
2023-09-27T16:06:11.824Z,25.45
2023-09-27T16:08:39.670Z,25.22
2023-09-27T16:11:07.618Z,25.18
2023-09-27T16:13:35.329Z,24.93
2023-09-27T16:16:03.123Z,24.81
2023-09-27T16:18:31.120Z,24.48
2023-09-27T16:20:58.693Z,24.14
2023-09-27T16:23:26.360Z,23.95
2023-09-27T16:25:55.192Z,23.87
2023-09-27T16:28:23.003Z,23.65
2023-09-27T16:30:51.020Z,23.54
2023-09-27T16:33:21.806Z,23.37
2023-09-27T16:35:49.687Z,23.55
2023-09-27T16:38:17.465Z,23.43
2023-09-27T16:40:45.501Z,23.23
2023-09-27T16:43:13.321Z,23.14
2023-09-27T16:45:41.228Z,22.86
2023-09-27T16:48:09.492Z,22.61
2023-09-27T16:50:37.163Z,22.55
2023-09-27T16:53:13.529Z,22.27
2023-09-27T16:55:44.213Z,22.17
2023-09-27T16:58:11.956Z,22.13
2023-09-27T17:00:39.892Z,22.10
2023-09-27T17:03:09.118Z,22.08
2023-09-27T17:05:36.843Z,22.08
2023-09-27T17:08:04.933Z,22.05
2023-09-27T17:10:33.250Z,21.94
2023-09-27T17:13:01.573Z,21.68
2023-09-27T17:15:29.502Z,21.73
2023-09-27T17:18:00.165Z,21.40
2023-09-27T17:20:27.979Z,21.25
2023-09-27T17:22:56.059Z,21.27
2023-09-27T17:25:24.063Z,21.32
2023-09-27T17:27:52.160Z,21.28
2023-09-27T17:30:20.121Z,21.34
2023-09-27T17:32:48.431Z,21.26
2023-09-27T17:35:16.708Z,21.24
2023-09-27T17:37:44.421Z,21.18
2023-09-27T17:40:15.330Z,21.26
2023-09-27T17:42:43.278Z,21.10
2023-09-27T17:45:16.824Z,21.12
2023-09-27T17:47:47.232Z,21.02
2023-09-27T17:50:18.834Z,20.99
2023-09-27T17:52:52.127Z,21.00
2023-09-27T17:55:21.601Z,21.17
2023-09-27T17:57:50.000Z,20.90
2023-09-27T18:00:18.377Z,20.81
2023-09-27T18:02:48.441Z,20.76
2023-09-27T18:05:16.402Z,20.80
2023-09-27T18:07:44.215Z,20.81
2023-09-27T18:10:12.435Z,20.66
2023-09-27T18:12:43.000Z,20.65
2023-09-27T18:15:25.436Z,20.54
2023-09-27T18:17:56.179Z,20.56
2023-09-27T18:20:25.500Z,20.47
2023-09-27T18:22:53.354Z,20.45
2023-09-27T18:25:21.497Z,20.57
2023-09-27T18:27:49.413Z,20.57
2023-09-27T18:30:17.714Z,20.62
2023-09-27T18:32:58.608Z,20.43
2023-09-27T18:35:30.207Z,20.51
2023-09-27T18:37:59.753Z,20.35
2023-09-27T18:40:30.861Z,20.52
2023-09-27T18:42:59.009Z,20.36
2023-09-27T18:45:26.938Z,20.21
2023-09-27T18:47:57.033Z,20.30
2023-09-27T18:50:29.307Z,20.30
2023-09-27T18:52:57.118Z,20.14
2023-09-27T18:55:25.053Z,20.15
2023-09-27T18:57:53.340Z,20.25
2023-09-27T19:00:21.246Z,20.10
2023-09-27T19:02:49.550Z,20.19
2023-09-27T19:05:17.692Z,20.20
2023-09-27T19:07:45.808Z,20.18
2023-09-27T19:10:13.802Z,20.27
2023-09-27T19:12:42.075Z,20.27
2023-09-27T19:15:11.157Z,20.15
2023-09-27T19:17:39.211Z,20.22
2023-09-27T19:20:09.565Z,20.27
2023-09-27T19:22:37.449Z,20.14
2023-09-27T19:25:05.579Z,20.28
2023-09-27T19:27:34.494Z,20.31
2023-09-27T19:30:02.422Z,20.13
2023-09-27T19:32:30.543Z,20.23
2023-09-27T19:35:01.486Z,20.24
2023-09-27T19:37:29.674Z,20.15
2023-09-27T19:39:57.975Z,20.19
2023-09-27T19:42:25.922Z,20.19
2023-09-27T19:44:53.807Z,20.18
2023-09-27T19:47:21.737Z,20.18
2023-09-27T19:49:49.720Z,20.17
2023-09-27T19:52:17.762Z,20.08
2023-09-27T19:54:45.377Z,20.14
2023-09-27T19:57:13.373Z,20.06
2023-09-27T19:59:43.951Z,20.14
2023-09-27T20:02:12.380Z,20.06
2023-09-27T20:04:40.796Z,20.02
2023-09-27T20:07:08.475Z,20.02
2023-09-27T20:09:36.163Z,19.95
2023-09-27T20:12:04.376Z,19.76
2023-09-27T20:14:32.468Z,19.86
2023-09-27T20:17:00.226Z,19.83
2023-09-27T20:19:28.147Z,19.84
2023-09-27T20:21:55.730Z,19.82
2023-09-27T20:24:25.305Z,19.70
2023-09-27T20:26:53.217Z,19.65
2023-09-27T20:29:21.090Z,19.67
2023-09-27T20:31:48.790Z,19.74
2023-09-27T20:34:16.958Z,19.69
2023-09-27T20:36:44.698Z,19.61
2023-09-27T20:39:12.411Z,19.53
2023-09-27T20:41:40.486Z,19.66
2023-09-27T20:44:08.127Z,19.62
2023-09-27T20:46:35.809Z,19.60
2023-09-27T20:49:03.871Z,19.55
2023-09-27T20:51:31.539Z,19.48
2023-09-27T20:53:59.275Z,19.38
2023-09-27T20:56:27.217Z,19.49
2023-09-27T20:58:55.025Z,19.45
2023-09-27T21:01:30.393Z,19.43
2023-09-27T21:03:58.285Z,19.44
2023-09-27T21:06:27.095Z,19.35
2023-09-27T21:09:04.724Z,19.45
2023-09-27T21:11:32.792Z,19.41
2023-09-27T21:14:02.014Z,19.37
2023-09-27T21:16:30.670Z,19.34
2023-09-27T21:18:59.943Z,19.40
2023-09-27T21:21:27.699Z,19.30
2023-09-27T21:23:55.442Z,19.26
2023-09-27T21:26:23.470Z,19.25
2023-09-27T21:28:51.131Z,19.21
2023-09-27T21:31:19.373Z,19.23
2023-09-27T21:33:47.363Z,19.02
2023-09-27T21:36:15.106Z,19.24
2023-09-27T21:38:42.799Z,19.14
2023-09-27T21:41:11.154Z,19.12
2023-09-27T21:43:38.786Z,18.97
2023-09-27T21:46:15.313Z,19.04
2023-09-27T21:48:43.147Z,18.96
2023-09-27T21:51:10.715Z,18.97
2023-09-27T21:53:38.973Z,18.93
2023-09-27T21:56:08.072Z,18.93
2023-09-27T21:58:35.812Z,18.96
2023-09-27T22:01:03.425Z,18.91
2023-09-27T22:03:31.725Z,18.78
2023-09-27T22:05:59.360Z,18.75
2023-09-27T22:08:26.955Z,18.78
2023-09-27T22:10:55.121Z,18.84
2023-09-27T22:13:23.354Z,18.78
2023-09-27T22:15:53.425Z,18.64
2023-09-27T22:18:21.828Z,18.68
2023-09-27T22:20:49.680Z,18.68
2023-09-27T22:23:21.141Z,18.69
2023-09-27T22:25:48.979Z,18.76
2023-09-27T22:28:16.572Z,18.71
2023-09-27T22:30:44.169Z,18.64
2023-09-27T22:33:11.963Z,18.65
2023-09-27T22:35:39.819Z,18.75
2023-09-27T22:38:07.489Z,18.70
2023-09-27T22:40:35.421Z,18.67
2023-09-27T22:43:03.041Z,18.74
2023-09-27T22:45:30.725Z,18.69
2023-09-27T22:47:59.093Z,18.69
2023-09-27T22:50:26.654Z,18.72
2023-09-27T22:52:54.248Z,18.68
2023-09-27T22:55:23.586Z,18.67
2023-09-27T22:57:51.307Z,18.57
2023-09-27T23:00:20.693Z,18.67
2023-09-27T23:02:49.357Z,18.57
2023-09-27T23:05:17.147Z,18.51
2023-09-27T23:07:44.722Z,18.55
2023-09-27T23:10:12.695Z,18.55
2023-09-27T23:12:41.008Z,18.50
2023-09-27T23:15:10.275Z,18.57
2023-09-27T23:17:38.320Z,18.58
2023-09-27T23:20:06.862Z,18.64
2023-09-27T23:22:34.794Z,18.60
2023-09-27T23:25:02.635Z,18.68
2023-09-27T23:27:30.261Z,18.67
2023-09-27T23:29:58.409Z,18.67
2023-09-27T23:32:26.751Z,18.34
2023-09-27T23:34:54.893Z,18.48
2023-09-27T23:37:22.617Z,18.54
2023-09-27T23:39:50.531Z,18.51
2023-09-27T23:42:21.578Z,18.53
2023-09-27T23:44:50.089Z,18.55
2023-09-27T23:47:19.100Z,18.53
2023-09-27T23:49:46.731Z,18.51
2023-09-27T23:52:14.400Z,18.45
2023-09-27T23:54:42.637Z,18.52
2023-09-27T23:57:10.382Z,18.46
2023-09-27T23:59:37.983Z,18.47
